Time;durP1;ratioP1;P1;durP2;ratioP2;P2;SDS_P1;SDS_P2;PMS_P1;PMS_P2;Temp;Humidity;BMP_temperature;BMP_pressure;BME280_temperature;BME280_humidity;BME280_pressure;Samples;Min_cycle;Max_cycle;Signal;HPM_P1;HPM_P2
2022/02/11 00:08:21;;;;;;;;;;;;;;;;;;;;;
2022/02/11 00:11:18;;;;;;;7.60;5.60;;;7.20;99.90;;;;;;6222829;23;20372;-83
2022/02/11 00:17:53;;;;;;;5.53;5.03;;;7.00;99.90;;;;;;6180731;23;20439;-83
2022/02/11 00:23:35;;;;;;;5.07;4.53;;;7.20;99.90;;;;;;6166227;23;20379;-83
2022/02/11 00:26:27;;;;;;;10.13;6.83;;;7.20;99.90;;;;;;6164478;23;20799;-84
2022/02/11 00:36:08;;;;;;;6.20;5.60;;;7.30;99.90;;;;;;6188048;23;20695;-84
2022/02/11 01:06:10;;;;;;;7.80;5.87;;;7.20;99.90;;;;;;6181343;23;20400;-84
2022/02/11 01:08:40;;;;;;;7.47;5.93;;;7.20;99.90;;;;;;6153869;23;20387;-84
2022/02/11 01:14:31;;;;;;;6.77;4.93;;;7.20;99.90;;;;;;6179142;23;20869;-84
2022/02/11 01:17:32;;;;;;;;;;;;;;;;;;;;;
2022/02/11 01:32:34;;;;;;;;;;;;;;;;;;;;;
2022/02/11 02:58:44;;;;;;;;;;;;;;;;;;;;;
2022/02/11 03:59:09;;;;;;;3.40;2.67;;;5.20;99.90;;;;;;6162425;23;20379;-84
2022/02/11 04:55:03;;;;;;;2.53;2.40;;;3.50;99.90;;;;;;6212876;23;20587;-84
2022/02/11 05:36:24;;;;;;;4.13;3.83;;;3.20;99.90;;;;;;5947491;22;7481537;-84
2022/02/11 05:38:49;;;;;;;4.47;3.23;;;3.10;99.90;;;;;;6193732;23;20576;-85
2022/02/11 05:41:20;;;;;;;3.80;3.50;;;3.10;99.90;;;;;;6197313;23;20565;-85
2022/02/11 05:43:48;;;;;;;3.87;3.57;;;3.20;99.90;;;;;;6196614;23;21019;-85
2022/02/11 05:46:14;;;;;;;3.20;2.90;;;3.10;99.90;;;;;;6195714;23;20450;-85
2022/02/11 05:48:59;;;;;;;3.40;3.10;;;3.10;99.90;;;;;;6197756;23;20784;-85
2022/02/11 05:51:33;;;;;;;2.90;2.70;;;3.10;99.90;;;;;;6202797;23;20379;-85
2022/02/11 05:54:03;;;;;;;3.90;2.90;;;3.00;99.90;;;;;;6197473;23;20476;-84
2022/02/11 05:56:29;;;;;;;3.67;3.37;;;3.10;99.90;;;;;;6198230;23;20585;-85
2022/02/11 05:58:55;;;;;;;4.23;3.70;;;3.00;99.90;;;;;;6196130;23;20399;-85
2022/02/11 06:01:28;;;;;;;2.90;2.70;;;3.10;99.90;;;;;;6193071;23;20233;-85
2022/02/11 06:03:56;;;;;;;4.77;3.13;;;3.10;99.90;;;;;;6198620;23;20171;-85
2022/02/11 06:06:24;;;;;;;3.47;3.17;;;3.20;99.90;;;;;;6200173;23;20392;-84
2022/02/11 06:09:03;;;;;;;2.70;2.40;;;3.10;99.90;;;;;;6197406;23;20490;-84
2022/02/11 06:11:31;;;;;;;3.07;2.77;;;3.20;99.90;;;;;;6173997;23;20395;-84
2022/02/11 06:13:57;;;;;;;5.00;3.77;;;3.10;99.90;;;;;;6191817;23;20688;-86
2022/02/11 06:16:45;;;;;;;4.57;3.20;;;3.10;99.90;;;;;;6190797;23;20596;-86
2022/02/11 06:19:36;;;;;;;3.60;3.30;;;3.20;99.90;;;;;;6196385;23;20184;-86
2022/02/11 06:22:44;;;;;;;;;;;;;;;;;;;;;
2022/02/11 06:28:25;;;;;;;3.90;3.50;;;3.10;99.90;;;;;;6224296;23;20358;-85
2022/02/11 06:30:54;;;;;;;3.63;3.33;;;3.20;99.90;;;;;;6191194;23;20396;-85
2022/02/11 06:33:27;;;;;;;3.67;3.37;;;3.20;99.90;;;;;;6195428;23;20209;-85
2022/02/11 06:35:53;;;;;;;8.17;4.10;;;3.20;99.90;;;;;;6194268;23;20402;-84
2022/02/11 06:38:21;;;;;;;4.23;3.80;;;3.20;99.90;;;;;;6186830;23;20396;-85
2022/02/11 06:40:54;;;;;;;3.63;3.30;;;3.30;99.90;;;;;;6189878;23;20628;-86
2022/02/11 06:43:24;;;;;;;4.67;4.13;;;3.30;99.90;;;;;;6193441;23;20378;-88
2022/02/11 06:45:50;;;;;;;6.10;4.40;;;3.20;99.90;;;;;;6191005;23;20726;-85
2022/02/11 06:48:19;;;;;;;4.70;3.80;;;3.10;99.90;;;;;;6192975;23;20460;-84
2022/02/11 06:50:47;;;;;;;4.67;4.27;;;3.20;99.90;;;;;;6190981;23;20669;-84
2022/02/11 06:53:14;;;;;;;4.67;3.60;;;3.20;99.90;;;;;;6190089;23;20390;-85
2022/02/11 06:55:40;;;;;;;5.93;5.37;;;3.20;99.90;;;;;;6191794;23;20421;-84
2022/02/11 06:58:06;;;;;;;5.60;4.30;;;3.20;99.90;;;;;;6190712;23;20394;-83
2022/02/11 07:00:33;;;;;;;7.17;4.07;;;3.30;99.90;;;;;;6191751;23;20678;-84
2022/02/11 07:02:59;;;;;;;7.93;4.10;;;3.40;99.90;;;;;;6188424;23;20871;-83
2022/02/11 07:05:27;;;;;;;5.27;3.70;;;3.30;99.90;;;;;;6192190;23;20442;-84
2022/02/11 07:07:54;;;;;;;5.10;3.87;;;3.30;99.90;;;;;;6191430;23;20459;-83
2022/02/11 07:10:25;;;;;;;6.23;4.60;;;3.30;99.90;;;;;;6188239;23;20398;-84
2022/02/11 07:13:19;;;;;;;6.77;3.70;;;3.30;99.90;;;;;;6191952;23;20374;-83
2022/02/11 07:15:48;;;;;;;4.73;4.30;;;3.20;99.90;;;;;;6193163;23;20396;-85
2022/02/11 07:18:14;;;;;;;6.30;4.60;;;3.10;99.90;;;;;;6197849;23;20785;-84
2022/02/11 07:20:43;;;;;;;5.90;4.20;;;3.10;99.90;;;;;;6196852;23;20390;-84
2022/02/11 07:23:13;;;;;;;5.63;4.17;;;3.10;99.90;;;;;;6197495;23;20170;-85
2022/02/11 07:25:39;;;;;;;4.13;3.73;;;3.00;99.90;;;;;;6197276;23;20518;-84
2022/02/11 07:28:07;;;;;;;7.33;4.53;;;3.10;99.90;;;;;;6195498;23;20705;-84
2022/02/11 07:30:33;;;;;;;4.77;3.80;;;3.00;99.90;;;;;;6198955;23;20436;-84
2022/02/11 07:32:59;;;;;;;4.90;3.60;;;3.00;99.90;;;;;;6198143;23;20426;-84
2022/02/11 07:35:31;;;;;;;3.03;2.83;;;3.00;99.90;;;;;;6222956;23;20439;-83
2022/02/11 07:37:57;;;;;;;4.13;3.47;;;2.90;99.90;;;;;;6200750;23;20160;-83
2022/02/11 07:40:25;;;;;;;4.90;3.40;;;2.90;99.90;;;;;;6202632;23;20396;-84
2022/02/11 07:43:19;;;;;;;3.80;3.47;;;2.90;99.90;;;;;;6201750;23;20416;-84
2022/02/11 07:45:45;;;;;;;5.43;3.73;;;2.90;99.90;;;;;;6201680;23;20895;-84
2022/02/11 07:48:10;;;;;;;3.70;3.30;;;2.90;99.90;;;;;;6208945;23;20393;-84
2022/02/11 07:50:38;;;;;;;3.37;3.07;;;2.90;99.90;;;;;;6202928;23;20613;-83
2022/02/11 07:53:03;;;;;;;5.30;3.30;;;2.90;99.90;;;;;;6199485;23;20245;-83
2022/02/11 07:55:33;;;;;;;3.43;2.63;;;3.00;99.90;;;;;;6199282;23;20456;-83
2022/02/11 07:57:59;;;;;;;4.00;3.60;;;3.00;99.90;;;;;;6198483;23;20165;-83
2022/02/11 08:00:26;;;;;;;3.87;3.47;;;3.00;99.90;;;;;;6199321;23;20394;-82
2022/02/11 08:02:52;;;;;;;3.60;3.27;;;3.00;99.90;;;;;;6198945;23;20532;-83
2022/02/11 08:05:18;;;;;;;4.23;3.80;;;3.00;99.90;;;;;;6197336;23;20521;-84
2022/02/11 08:07:44;;;;;;;3.17;2.97;;;3.10;99.90;;;;;;6199068;23;20290;-82
2022/02/11 08:10:10;;;;;;;4.13;3.73;;;3.30;99.90;;;;;;6199163;23;20170;-83
2022/02/11 08:12:46;;;;;;;;;;;;;;;;;;;;;
2022/02/11 08:15:12;;;;;;;5.23;3.67;;;3.60;99.90;;;;;;6225474;23;20368;-83
2022/02/11 08:17:40;;;;;;;4.30;3.63;;;3.80;99.90;;;;;;6187933;23;20390;-82
2022/02/11 08:20:09;;;;;;;5.43;4.20;;;3.90;99.90;;;;;;6192573;23;20351;-83
2022/02/11 08:22:37;;;;;;;3.77;3.43;;;4.10;99.90;;;;;;6192782;23;20396;-82
2022/02/11 08:25:06;;;;;;;4.47;3.63;;;4.20;99.90;;;;;;6191951;23;21201;-83
2022/02/11 08:27:32;;;;;;;5.20;3.47;;;4.10;99.90;;;;;;6192731;23;20974;-83
2022/02/11 08:29:57;;;;;;;8.20;3.00;;;4.20;99.90;;;;;;6192705;23;20398;-83
2022/02/11 08:32:32;;;;;;;2.50;2.30;;;4.30;99.90;;;;;;6192117;23;20156;-83
2022/02/11 08:35:05;;;;;;;4.63;2.27;;;4.50;99.90;;;;;;6194940;23;20894;-83
2022/02/11 08:37:34;;;;;;;3.43;2.70;;;4.50;99.90;;;;;;6196688;23;20691;-83
2022/02/11 08:40:07;;;;;;;4.47;3.00;;;4.70;99.90;;;;;;6197162;23;20395;-83
2022/02/11 08:42:35;;;;;;;3.00;2.60;;;4.90;99.90;;;;;;6195719;23;20381;-83
2022/02/11 08:45:11;;;;;;;5.97;2.67;;;5.00;99.90;;;;;;6194395;23;20435;-83
2022/02/11 08:47:38;;;;;;;11.13;4.07;;;4.90;99.90;;;;;;6193207;23;20385;-83
2022/02/11 08:50:05;;;;;;;3.50;2.50;;;4.90;99.90;;;;;;6194757;23;20799;-83
2022/02/11 08:52:34;;;;;;;3.90;2.50;;;5.10;99.90;;;;;;6191665;23;20390;-83
2022/02/11 08:55:02;;;;;;;4.17;2.50;;;5.20;99.90;;;;;;6195828;23;20433;-83
2022/02/11 08:57:29;;;;;;;2.50;2.23;;;5.30;99.90;;;;;;6193470;23;20404;-84
2022/02/11 08:59:55;;;;;;;4.40;2.30;;;5.20;99.90;;;;;;6194061;23;20738;-84
2022/02/11 09:02:21;;;;;;;3.10;2.40;;;5.30;99.90;;;;;;6194270;23;20469;-82
2022/02/11 09:04:46;;;;;;;2.90;2.17;;;5.30;99.90;;;;;;6196329;23;20483;-82
2022/02/11 09:07:12;;;;;;;3.60;1.93;;;5.20;99.90;;;;;;6192688;23;20637;-85
2022/02/11 09:09:39;;;;;;;4.10;3.20;;;5.40;99.90;;;;;;6192417;23;20175;-82
2022/02/11 09:12:05;;;;;;;6.10;3.37;;;5.40;99.90;;;;;;6193374;23;20549;-82
2022/02/11 09:14:31;;;;;;;2.80;2.20;;;5.10;99.90;;;;;;6202833;23;20757;-83
2022/02/11 09:16:56;;;;;;;2.47;2.27;;;4.80;99.90;;;;;;6203398;23;20393;-83
2022/02/11 09:19:22;;;;;;;4.07;1.83;;;4.80;99.90;;;;;;6199930;23;20159;-83
2022/02/11 09:21:50;;;;;;;3.07;1.90;;;4.80;99.90;;;;;;6195434;23;20486;-83
2022/02/11 09:24:15;;;;;;;5.40;2.10;;;4.70;99.90;;;;;;6167440;23;20233;-83
2022/02/11 09:26:41;;;;;;;3.93;2.30;;;5.10;99.90;;;;;;6195630;23;20418;-84
2022/02/11 09:29:10;;;;;;;2.20;2.00;;;5.50;99.90;;;;;;6187082;23;20618;-83
2022/02/11 09:31:38;;;;;;;2.43;2.00;;;5.80;99.90;;;;;;6194340;23;20547;-83
2022/02/11 09:34:06;;;;;;;2.53;1.87;;;5.90;99.90;;;;;;6190763;23;20403;-83
2022/02/11 09:36:39;;;;;;;2.70;1.90;;;5.90;99.90;;;;;;6195041;23;20449;-83
2022/02/11 09:39:07;;;;;;;3.20;2.40;;;5.90;99.90;;;;;;6192531;23;20382;-83
2022/02/11 09:41:35;;;;;;;2.00;1.60;;;5.80;99.90;;;;;;6196013;23;20395;-83
2022/02/11 09:44:04;;;;;;;2.17;1.97;;;6.20;99.90;;;;;;6193073;23;20488;-83
2022/02/11 09:46:40;;;;;;;2.17;1.83;;;6.50;99.90;;;;;;6193437;23;20424;-83
2022/02/11 09:49:07;;;;;;;4.03;1.90;;;6.70;99.90;;;;;;6191872;23;20453;-83
2022/02/11 09:51:35;;;;;;;3.23;2.00;;;6.50;99.90;;;;;;6191512;23;20390;-83
2022/02/11 09:54:16;;;;;;;4.00;1.80;;;6.60;99.90;;;;;;6192243;23;20809;-83
2022/02/11 09:56:50;;;;;;;3.47;2.00;;;6.60;99.90;;;;;;6199090;23;20382;-83
2022/02/11 09:59:27;;;;;;;1.70;1.60;;;6.90;99.90;;;;;;6196128;23;20806;-83
2022/02/11 10:02:05;;;;;;;;;;;;;;;;;;;;;
2022/02/11 10:04:34;;;;;;;2.03;1.40;;;7.20;99.40;;;;;;6222493;23;20830;-83
2022/02/11 10:07:03;;;;;;;1.77;1.60;;;6.70;97.90;;;;;;6195738;23;20855;-82
2022/02/11 10:09:29;;;;;;;5.30;2.40;;;6.40;99.40;;;;;;6195009;23;20400;-83
2022/02/11 10:12:02;;;;;;;2.10;2.00;;;6.50;98.30;;;;;;6195565;23;20389;-83
2022/02/11 10:14:36;;;;;;;5.30;2.60;;;6.50;98.70;;;;;;6199505;23;20155;-83
2022/02/11 10:17:09;;;;;;;2.50;1.80;;;6.40;98.50;;;;;;6199245;23;20382;-83
2022/02/11 10:19:37;;;;;;;7.90;2.70;;;6.10;98.70;;;;;;6200411;23;20409;-84
2022/02/11 10:22:16;;;;;;;4.03;1.73;;;6.10;99.50;;;;;;6201171;23;20407;-84
2022/02/11 10:24:43;;;;;;;2.03;1.83;;;6.10;99.40;;;;;;6199270;23;20435;-84
2022/02/11 10:27:26;;;;;;;4.10;2.17;;;5.90;99.40;;;;;;6196678;23;20712;-83
2022/02/11 10:29:58;;;;;;;5.93;2.13;;;5.80;99.50;;;;;;6196001;23;20866;-83
2022/02/11 10:32:44;;;;;;;3.40;2.53;;;5.80;99.90;;;;;;6190164;23;20414;-83
2022/02/11 10:35:14;;;;;;;2.60;2.17;;;5.90;99.70;;;;;;6191142;23;20407;-83
2022/02/11 10:38:17;;;;;;;2.30;1.97;;;5.70;99.90;;;;;;6191327;23;20841;-83
2022/02/11 10:40:45;;;;;;;2.33;2.10;;;5.50;99.80;;;;;;6185179;23;20732;-83
2022/02/11 10:43:19;;;;;;;2.70;2.50;;;5.40;99.90;;;;;;6196404;23;20863;-84
2022/02/11 10:45:45;;;;;;;3.87;2.50;;;5.50;99.90;;;;;;6191308;23;20451;-84
2022/02/11 10:48:16;;;;;;;2.80;2.20;;;5.70;99.90;;;;;;6193380;23;20915;-84
2022/02/11 10:50:55;;;;;;;4.40;2.30;;;5.90;99.60;;;;;;6192945;23;20151;-84
2022/02/11 10:53:44;;;;;;;2.90;2.60;;;6.00;99.80;;;;;;6189344;23;20697;-84
2022/02/11 10:56:15;;;;;;;2.93;2.23;;;5.90;99.70;;;;;;6184772;23;20918;-83
2022/02/11 10:59:06;;;;;;;4.63;2.80;;;5.60;99.90;;;;;;6185061;23;21014;-83
2022/02/11 11:01:34;;;;;;;4.13;2.20;;;5.70;99.90;;;;;;6191059;23;20391;-84
2022/02/11 11:03:59;;;;;;;4.53;2.23;;;5.70;99.90;;;;;;6163514;23;20434;-84
2022/02/11 11:06:28;;;;;;;3.03;2.57;;;5.40;99.90;;;;;;6183049;23;20520;-84
2022/02/11 11:08:57;;;;;;;4.60;2.50;;;5.40;99.90;;;;;;6186146;23;20301;-83
2022/02/11 11:11:24;;;;;;;4.57;2.37;;;5.50;99.90;;;;;;6187392;23;20401;-84
2022/02/11 11:13:53;;;;;;;4.20;2.43;;;5.40;99.90;;;;;;6188235;23;20407;-84
2022/02/11 11:16:20;;;;;;;3.50;2.50;;;5.50;99.90;;;;;;6187537;23;20448;-85
2022/02/11 11:18:46;;;;;;;5.63;2.83;;;5.50;99.90;;;;;;6187911;23;20401;-84
2022/02/11 11:21:13;;;;;;;2.93;2.13;;;5.50;99.90;;;;;;6186960;23;20391;-84
2022/02/11 11:24:00;;;;;;;5.30;2.00;;;5.60;99.90;;;;;;6183925;23;20402;-84
2022/02/11 11:26:39;;;;;;;6.50;3.10;;;5.60;99.90;;;;;;6186756;23;20395;-84
2022/02/11 11:29:22;;;;;;;3.50;2.30;;;6.00;99.90;;;;;;6184880;23;20450;-84
2022/02/11 11:32:04;;;;;;;3.80;1.97;;;6.00;99.90;;;;;;6186204;23;20854;-84
2022/02/11 11:34:41;;;;;;;4.60;2.37;;;6.00;99.90;;;;;;6182669;23;20387;-84
2022/02/11 11:37:10;;;;;;;3.80;2.27;;;5.80;99.90;;;;;;6191457;23;20471;-83
2022/02/11 11:39:40;;;;;;;4.00;2.40;;;5.70;99.90;;;;;;6185477;23;20528;-83
2022/02/11 11:42:14;;;;;;;3.67;2.60;;;5.70;99.90;;;;;;6186073;23;20377;-83
2022/02/11 11:44:53;;;;;;;5.20;1.97;;;5.70;99.90;;;;;;6185422;23;20441;-83
2022/02/11 11:47:39;;;;;;;6.10;2.40;;;5.60;99.90;;;;;;6191685;23;20401;-84
2022/02/11 11:50:08;;;;;;;3.43;2.30;;;5.50;99.90;;;;;;6214423;23;20714;-83
2022/02/11 11:52:41;;;;;;;3.63;2.50;;;5.50;99.90;;;;;;6185222;23;20403;-83
2022/02/11 11:55:15;;;;;;;2.50;2.20;;;5.50;99.90;;;;;;6187201;23;20398;-82
2022/02/11 11:57:43;;;;;;;4.50;3.60;;;5.40;99.90;;;;;;6188543;23;20403;-83
2022/02/11 12:00:12;;;;;;;6.47;3.33;;;5.40;99.90;;;;;;6183630;23;20385;-83
2022/02/11 12:02:38;;;;;;;6.47;2.47;;;5.40;99.90;;;;;;6188579;23;20897;-82
2022/02/11 12:05:05;;;;;;;4.10;3.40;;;5.30;99.90;;;;;;6185092;23;20516;-84
2022/02/11 12:07:35;;;;;;;7.23;3.33;;;5.40;99.90;;;;;;6186172;23;20391;-83
2022/02/11 12:10:21;;;;;;;3.07;2.43;;;5.50;99.90;;;;;;6185974;23;20897;-83
2022/02/11 12:12:47;;;;;;;4.83;3.07;;;5.40;99.90;;;;;;6190833;23;20723;-83
2022/02/11 12:15:18;;;;;;;3.60;2.40;;;5.50;99.90;;;;;;6187353;23;20403;-83
2022/02/11 12:17:47;;;;;;;4.40;2.50;;;5.50;99.90;;;;;;6186614;23;20149;-83
2022/02/11 12:20:13;;;;;;;3.07;2.80;;;5.50;99.90;;;;;;6187099;23;20729;-83
2022/02/11 12:27:19;;;;;;;3.00;2.70;;;5.50;99.90;;;;;;6184381;23;20401;-83
2022/02/11 12:28:12;;;;;;;3.47;2.37;;;5.60;99.90;;;;;;6215956;23;20524;-83
2022/02/11 12:30:42;;;;;;;3.10;1.90;;;5.70;99.90;;;;;;6193699;23;20390;-83
2022/02/11 12:33:08;;;;;;;2.43;2.13;;;5.60;99.90;;;;;;6189183;23;20417;-83
2022/02/11 12:35:37;;;;;;;4.20;2.50;;;5.50;99.90;;;;;;6184048;23;20439;-83
2022/02/11 12:38:04;;;;;;;3.87;2.20;;;5.60;99.90;;;;;;6185033;23;20301;-83
2022/02/11 12:40:33;;;;;;;2.50;2.20;;;5.70;99.90;;;;;;6185549;23;20810;-83
2022/02/11 12:43:07;;;;;;;4.50;2.40;;;5.70;99.90;;;;;;6185745;23;20398;-83
2022/02/11 12:45:36;;;;;;;5.03;2.10;;;5.70;99.90;;;;;;6188263;23;20546;-83
2022/02/11 12:48:04;;;;;;;3.90;1.83;;;5.60;99.90;;;;;;6188910;23;20437;-83
2022/02/11 12:50:36;;;;;;;4.60;2.27;;;5.60;99.90;;;;;;6185508;23;20722;-84
2022/02/11 12:53:04;;;;;;;5.93;1.80;;;5.60;99.90;;;;;;6186119;23;20387;-82
2022/02/11 12:55:36;;;;;;;5.10;2.40;;;5.60;99.90;;;;;;6185556;23;20821;-82
2022/02/11 12:58:03;;;;;;;3.23;1.97;;;5.70;99.90;;;;;;6184922;23;20416;-83
2022/02/11 13:00:32;;;;;;;5.07;1.80;;;6.00;99.90;;;;;;6185485;23;20412;-83
2022/02/11 13:03:01;;;;;;;2.43;1.77;;;5.90;98.40;;;;;;6188091;23;20712;-83
2022/02/11 13:05:28;;;;;;;3.77;1.60;;;5.80;98.30;;;;;;6184990;23;20450;-83
2022/02/11 13:07:57;;;;;;;2.30;1.83;;;5.90;99.20;;;;;;6186528;23;20766;-83
2022/02/11 13:10:29;;;;;;;3.50;1.50;;;5.90;98.10;;;;;;6184536;23;20401;-83
2022/02/11 13:12:57;;;;;;;2.30;1.80;;;5.90;97.70;;;;;;6187734;23;20579;-83
2022/02/11 13:15:28;;;;;;;2.40;1.30;;;5.80;97.80;;;;;;6193622;23;20408;-83
2022/02/11 13:18:04;;;;;;;1.40;1.30;;;5.80;97.40;;;;;;6194298;23;20406;-83
2022/02/11 13:20:34;;;;;;;1.83;1.63;;;5.90;97.10;;;;;;6191529;23;20418;-83
2022/02/11 13:23:02;;;;;;;2.60;1.43;;;6.00;97.00;;;;;;6192009;23;20435;-83
2022/02/11 13:25:30;;;;;;;2.33;1.17;;;6.10;96.30;;;;;;6192529;23;20470;-83
2022/02/11 13:27:56;;;;;;;1.90;1.27;;;6.50;96.20;;;;;;6190384;23;20392;-83
2022/02/11 13:30:30;;;;;;;1.50;1.20;;;6.50;95.40;;;;;;6190429;23;20405;-82
2022/02/11 13:33:16;;;;;;;1.67;0.80;;;6.30;95.60;;;;;;6190187;23;20392;-83
2022/02/11 13:35:42;;;;;;;2.63;1.00;;;6.10;95.80;;;;;;6191011;23;20408;-83
2022/02/11 13:38:08;;;;;;;3.17;1.33;;;6.10;95.70;;;;;;6188623;23;20411;-83
2022/02/11 13:40:34;;;;;;;2.23;1.20;;;6.20;96.30;;;;;;6188683;23;20755;-83
2022/02/11 13:43:03;;;;;;;6.90;1.20;;;6.30;95.30;;;;;;6191226;23;20608;-83
2022/02/11 13:45:47;;;;;;;1.43;1.20;;;6.00;94.10;;;;;;6190482;23;20524;-83
2022/02/11 13:48:13;;;;;;;1.30;1.20;;;6.00;94.60;;;;;;6192865;23;20636;-83
2022/02/11 13:51:14;;;;;;;1.70;1.10;;;6.00;94.50;;;;;;6200475;23;20487;-83
2022/02/11 13:53:47;;;;;;;3.17;1.80;;;6.60;93.90;;;;;;6205140;23;20374;-83
2022/02/11 13:56:22;;;;;;;3.90;1.87;;;7.60;92.30;;;;;;6192967;23;20378;-83
2022/02/11 13:59:11;;;;;;;1.70;1.40;;;8.10;91.20;;;;;;6194290;23;20389;-83
2022/02/11 14:02:08;;;;;;;3.33;1.50;;;8.40;91.00;;;;;;6187081;23;21216;-83
2022/02/11 14:04:34;;;;;;;1.80;1.40;;;8.60;89.60;;;;;;6203403;23;20435;-83
2022/02/11 14:07:02;;;;;;;3.20;1.50;;;8.50;89.30;;;;;;6201320;23;20413;-82
2022/02/11 14:09:42;;;;;;;1.57;0.90;;;8.20;89.60;;;;;;6201708;23;20474;-84
2022/02/11 14:12:14;;;;;;;2.20;1.57;;;8.30;89.90;;;;;;6205763;23;20416;-83
2022/02/11 14:14:57;;;;;;;1.93;1.70;;;8.70;90.90;;;;;;6203373;23;20398;-83
2022/02/11 14:17:23;;;;;;;1.90;1.30;;;8.40;90.00;;;;;;6202949;23;20432;-83
2022/02/11 14:19:49;;;;;;;2.37;1.90;;;8.20;89.60;;;;;;6204653;23;20619;-83
2022/02/11 14:22:16;;;;;;;2.80;1.40;;;7.60;90.60;;;;;;6205106;23;20397;-83
2022/02/11 14:24:42;;;;;;;1.93;1.70;;;7.40;91.40;;;;;;6193606;23;20625;-83
2022/02/11 14:27:11;;;;;;;3.13;1.93;;;7.00;92.30;;;;;;6203937;23;20385;-83
2022/02/11 14:29:37;;;;;;;1.83;1.73;;;6.70;93.40;;;;;;6201580;23;20187;-86
2022/02/11 14:32:04;;;;;;;4.20;1.90;;;6.50;93.50;;;;;;6201685;23;20390;-84
2022/02/11 14:34:30;;;;;;;1.77;1.60;;;6.60;94.00;;;;;;6194904;23;20774;-84
2022/02/11 14:36:56;;;;;;;2.40;1.80;;;6.70;93.80;;;;;;6188740;23;20411;-83
2022/02/11 14:39:21;;;;;;;2.77;1.80;;;6.80;93.80;;;;;;6194405;23;20393;-83
2022/02/11 14:41:49;;;;;;;6.37;2.97;;;6.60;94.00;;;;;;6196038;23;20470;-82
2022/02/11 14:44:30;;;;;;;3.03;1.90;;;6.50;94.20;;;;;;6194275;23;20655;-82
2022/02/11 14:47:01;;;;;;;3.57;1.73;;;6.40;94.90;;;;;;6195970;23;20774;-82
2022/02/11 14:49:28;;;;;;;5.00;2.47;;;6.50;94.40;;;;;;6200122;23;20397;-81
2022/02/11 14:51:59;;;;;;;2.90;2.27;;;6.70;94.60;;;;;;6198664;23;20476;-82
2022/02/11 14:54:25;;;;;;;2.80;2.23;;;7.00;93.90;;;;;;6194951;23;20836;-81
2022/02/11 14:56:54;;;;;;;4.03;1.63;;;7.10;93.60;;;;;;6196112;23;20417;-82
2022/02/11 14:59:20;;;;;;;4.43;1.63;;;7.10;92.60;;;;;;6199145;23;20894;-82
2022/02/11 15:01:47;;;;;;;4.57;1.47;;;7.20;92.90;;;;;;6193361;23;20628;-82
2022/02/11 15:04:14;;;;;;;2.57;1.77;;;7.60;92.50;;;;;;6185035;23;20785;-81
2022/02/11 15:06:40;;;;;;;6.97;1.70;;;7.90;92.70;;;;;;6184894;23;20400;-82
2022/02/11 15:09:06;;;;;;;1.73;1.60;;;7.50;92.40;;;;;;6179877;23;20907;-82
2022/02/11 15:11:33;;;;;;;5.37;1.47;;;7.00;92.90;;;;;;6181173;23;20841;-82
2022/02/11 15:14:03;;;;;;;2.17;1.43;;;6.70;94.20;;;;;;6183502;23;20404;-81
2022/02/11 15:16:29;;;;;;;3.13;1.80;;;6.40;95.50;;;;;;6186126;23;21017;-82
2022/02/11 15:18:54;;;;;;;4.80;1.70;;;6.40;95.30;;;;;;6186240;23;20400;-82
2022/02/11 15:21:21;;;;;;;2.97;2.10;;;6.20;95.60;;;;;;6188624;23;21207;-82
2022/02/11 15:23:47;;;;;;;1.60;1.50;;;6.20;96.10;;;;;;6187918;23;20164;-81
2022/02/11 15:26:15;;;;;;;3.63;2.00;;;6.10;96.10;;;;;;6187849;23;20402;-81
2022/02/11 15:28:41;;;;;;;4.40;2.00;;;6.00;96.80;;;;;;6184561;23;20741;-81
2022/02/11 15:31:09;;;;;;;4.30;1.60;;;6.00;97.10;;;;;;6188924;23;20396;-82
2022/02/11 15:33:36;;;;;;;3.33;1.90;;;6.00;97.20;;;;;;6187544;23;20164;-82
2022/02/11 15:36:02;;;;;;;2.80;2.20;;;6.10;97.10;;;;;;6189620;23;21072;-82
2022/02/11 15:38:28;;;;;;;3.17;2.10;;;6.10;96.70;;;;;;6186993;23;20825;-82
2022/02/11 15:40:54;;;;;;;4.53;2.47;;;6.10;96.10;;;;;;6184748;23;21309;-81
2022/02/11 15:43:20;;;;;;;2.70;2.13;;;6.00;96.00;;;;;;6183881;23;20743;-82
2022/02/11 15:45:45;;;;;;;5.47;2.50;;;5.90;96.00;;;;;;6183107;23;20289;-82
2022/02/11 15:48:12;;;;;;;2.83;2.43;;;5.80;96.20;;;;;;6185671;23;20493;-82
2022/02/11 15:50:41;;;;;;;2.73;2.53;;;5.80;96.50;;;;;;6185321;23;20193;-83
2022/02/11 15:53:08;;;;;;;3.23;1.77;;;5.80;96.10;;;;;;6190703;23;20715;-82
2022/02/11 15:55:33;;;;;;;3.13;2.73;;;5.70;94.80;;;;;;6157722;23;20404;-84
2022/02/11 15:57:59;;;;;;;3.30;2.00;;;5.60;94.70;;;;;;6186302;23;20409;-82
2022/02/11 16:00:25;;;;;;;3.37;2.10;;;5.50;95.20;;;;;;6188321;23;20354;-81
2022/02/11 16:02:51;;;;;;;5.23;2.27;;;5.50;95.50;;;;;;6186427;23;20301;-81
2022/02/11 16:05:16;;;;;;;6.07;3.00;;;5.50;95.40;;;;;;6185750;23;20567;-82
2022/02/11 16:07:42;;;;;;;13.00;3.17;;;5.60;95.60;;;;;;6187614;23;20171;-82
2022/02/11 16:10:09;;;;;;;7.03;2.77;;;5.60;95.70;;;;;;6185694;23;20172;-82
2022/02/11 16:12:35;;;;;;;3.17;2.50;;;5.60;96.20;;;;;;6190725;23;20158;-83
2022/02/11 16:15:02;;;;;;;1.93;1.77;;;5.60;96.50;;;;;;6186334;23;20436;-83
2022/02/11 16:17:30;;;;;;;5.00;2.30;;;5.50;97.00;;;;;;6186352;23;20393;-83
2022/02/11 16:19:56;;;;;;;2.20;1.90;;;5.40;97.00;;;;;;6184815;23;20425;-83
2022/02/11 16:22:26;;;;;;;4.10;2.17;;;5.50;97.10;;;;;;6191360;23;20859;-83
2022/02/11 16:24:53;;;;;;;2.97;2.67;;;5.50;96.80;;;;;;6190963;23;20738;-84
2022/02/11 16:27:19;;;;;;;2.80;2.50;;;5.50;96.80;;;;;;6190934;23;20403;-82
2022/02/11 16:29:46;;;;;;;3.10;2.27;;;5.40;97.10;;;;;;6186342;23;20405;-83
2022/02/11 16:32:12;;;;;;;3.07;2.60;;;5.50;97.30;;;;;;6185050;23;20934;-83
2022/02/11 16:34:38;;;;;;;6.37;2.67;;;5.50;97.60;;;;;;6183579;23;20406;-83
2022/02/11 16:37:05;;;;;;;2.90;1.90;;;5.50;97.70;;;;;;6185713;23;20510;-83
2022/02/11 16:39:31;;;;;;;3.60;2.13;;;5.40;97.70;;;;;;6187143;23;20854;-83
2022/02/11 16:41:57;;;;;;;2.70;2.33;;;5.40;97.70;;;;;;6187913;23;20390;-84
2022/02/11 16:44:23;;;;;;;5.67;2.40;;;5.30;97.40;;;;;;6187134;23;20442;-84
2022/02/11 16:46:49;;;;;;;5.90;3.83;;;5.30;97.70;;;;;;6183028;23;20165;-85
2022/02/11 16:49:18;;;;;;;6.93;4.63;;;5.40;97.90;;;;;;6184979;23;20164;-85
2022/02/11 16:51:45;;;;;;;5.23;3.17;;;5.40;98.20;;;;;;6186187;23;20392;-85
2022/02/11 16:54:11;;;;;;;6.77;3.37;;;5.30;98.70;;;;;;6190999;23;20450;-85
2022/02/11 16:56:37;;;;;;;3.83;2.80;;;5.30;98.70;;;;;;6187053;23;20398;-85
2022/02/11 16:59:04;;;;;;;3.60;2.27;;;5.20;99.10;;;;;;6189029;23;20382;-85
2022/02/11 17:01:30;;;;;;;4.13;2.40;;;5.20;98.70;;;;;;6187238;23;20392;-85
2022/02/11 17:03:55;;;;;;;3.20;2.87;;;5.10;98.80;;;;;;6188381;23;20889;-85
2022/02/11 17:06:21;;;;;;;4.30;2.40;;;5.20;98.80;;;;;;6192779;23;20245;-85
2022/02/11 17:08:47;;;;;;;11.23;2.70;;;5.20;98.80;;;;;;6198317;23;20550;-86
2022/02/11 17:11:15;;;;;;;3.63;2.93;;;5.20;98.70;;;;;;6200298;23;20427;-85
2022/02/11 17:13:41;;;;;;;3.23;2.87;;;5.10;99.30;;;;;;6189173;23;20540;-85
2022/02/11 17:16:08;;;;;;;5.13;2.80;;;5.00;99.90;;;;;;6188116;23;20848;-84
2022/02/11 17:18:34;;;;;;;6.33;3.50;;;4.90;99.90;;;;;;6187588;23;20389;-85
2022/02/11 17:21:02;;;;;;;3.53;2.93;;;4.70;99.90;;;;;;6187341;23;20456;-85
2022/02/11 17:23:28;;;;;;;5.13;3.53;;;4.70;99.90;;;;;;6188301;23;20412;-85
2022/02/11 17:25:57;;;;;;;4.80;3.20;;;4.50;99.90;;;;;;6202201;23;20437;-85
2022/02/11 17:28:23;;;;;;;5.03;3.83;;;4.40;99.90;;;;;;6196891;23;20705;-85
2022/02/11 17:30:54;;;;;;;6.20;5.20;;;4.30;99.90;;;;;;6191280;23;20383;-87
2022/02/11 17:33:21;;;;;;;3.83;2.67;;;4.30;99.90;;;;;;6187298;23;20689;-85
2022/02/11 17:35:47;;;;;;;4.20;3.80;;;4.30;99.90;;;;;;6184021;23;20456;-85
2022/02/11 17:38:13;;;;;;;6.03;4.80;;;4.30;99.90;;;;;;6186661;23;20882;-85
2022/02/11 17:40:41;;;;;;;9.70;5.70;;;4.30;99.90;;;;;;6191445;23;20400;-85
2022/02/11 17:43:08;;;;;;;5.70;5.10;;;4.20;99.90;;;;;;6182644;23;20192;-86
2022/02/11 17:45:34;;;;;;;9.37;6.90;;;4.30;99.90;;;;;;6181904;23;20515;-85
2022/02/11 17:48:00;;;;;;;10.23;7.57;;;4.20;99.90;;;;;;6180508;23;20386;-84
2022/02/11 17:50:28;;;;;;;8.00;6.07;;;4.20;99.90;;;;;;6181984;23;20736;-85
2022/02/11 17:53:00;;;;;;;6.20;5.27;;;4.10;99.90;;;;;;6159101;23;20178;-86
2022/02/11 17:55:29;;;;;;;7.50;5.07;;;4.10;99.90;;;;;;6187217;23;20908;-86
2022/02/11 17:57:57;;;;;;;7.37;5.13;;;4.10;99.90;;;;;;6175279;23;20837;-87
2022/02/11 18:00:23;;;;;;;6.70;5.03;;;4.00;99.90;;;;;;6186291;23;20415;-85
2022/02/11 18:02:51;;;;;;;6.17;4.70;;;4.10;99.90;;;;;;6180398;23;20904;-83
2022/02/11 18:05:26;;;;;;;6.80;4.60;;;4.10;99.90;;;;;;6152495;23;20283;-85
2022/02/11 18:07:56;;;;;;;7.03;6.33;;;4.10;99.90;;;;;;6186285;23;20985;-84
2022/02/11 18:10:40;;;;;;;10.97;7.13;;;4.00;99.90;;;;;;6210710;23;20376;-84
2022/02/11 18:13:05;;;;;;;7.50;5.30;;;3.90;99.90;;;;;;6149138;23;20770;-85
2022/02/11 18:15:33;;;;;;;5.47;4.57;;;4.00;99.90;;;;;;6179660;23;20457;-84
2022/02/11 18:17:59;;;;;;;7.43;5.10;;;4.00;99.90;;;;;;6175905;23;20498;-87
2022/02/11 18:20:26;;;;;;;5.93;4.37;;;3.90;99.90;;;;;;6187189;23;20440;-85
2022/02/11 18:22:58;;;;;;;6.27;4.40;;;4.00;99.90;;;;;;6179565;23;20386;-85
2022/02/11 18:25:24;;;;;;;10.20;4.80;;;4.10;99.90;;;;;;6183494;23;20879;-85